Time;durP1;ratioP1;P1;durP2;ratioP2;P2;SDS_P1;SDS_P2;PMS_P1;PMS_P2;Temp;Humidity;BMP_temperature;BMP_pressure;BME280_temperature;BME280_humidity;BME280_pressure;Samples;Min_cycle;Max_cycle;Signal;HPM_P1;HPM_P2
2023/09/14 00:00:19;;;;;;;11.87;5.00;;;;;;;;;;5012987;28;20383;-63
2023/09/14 00:02:44;;;;;;;14.67;5.23;;;;;;;;;;5004381;28;20045;-63
2023/09/14 00:05:09;;;;;;;21.30;6.47;;;;;;;;;;4999790;28;20072;-62
2023/09/14 00:07:35;;;;;;;24.90;8.00;;;;;;;;;;5011839;28;20056;-64
2023/09/14 00:10:00;;;;;;;25.53;7.93;;;;;;;;;;5013344;28;20496;-63
2023/09/14 00:12:25;;;;;;;25.13;8.50;;;;;;;;;;5011876;28;20088;-64
2023/09/14 00:14:51;;;;;;;22.83;8.53;;;;;;;;;;5005152;28;20076;-63
2023/09/14 00:17:16;;;;;;;29.93;8.90;;;;;;;;;;5003414;28;20018;-63
2023/09/14 00:19:41;;;;;;;34.03;9.57;;;;;;;;;;5003454;28;20436;-64
2023/09/14 00:22:06;;;;;;;31.57;10.37;;;;;;;;;;5006483;28;20040;-64
2023/09/14 00:24:32;;;;;;;28.63;9.70;;;;;;;;;;5005169;28;20026;-63
2023/09/14 00:26:57;;;;;;;28.17;9.63;;;;;;;;;;5006296;28;20383;-64
2023/09/14 00:29:22;;;;;;;28.83;9.47;;;;;;;;;;5001182;28;20100;-63
2023/09/14 00:31:47;;;;;;;25.17;9.93;;;;;;;;;;5012479;28;20014;-64
2023/09/14 00:34:13;;;;;;;34.67;12.27;;;;;;;;;;5008890;28;20022;-63
2023/09/14 00:36:38;;;;;;;33.23;11.27;;;;;;;;;;5002920;28;20026;-63
2023/09/14 00:39:03;;;;;;;32.03;11.70;;;;;;;;;;5000827;28;20053;-63
2023/09/14 00:41:28;;;;;;;30.43;11.03;;;;;;;;;;5012727;28;20034;-64
2023/09/14 00:43:54;;;;;;;33.87;12.83;;;;;;;;;;5013223;28;20398;-63
2023/09/14 00:46:19;;;;;;;27.70;11.27;;;;;;;;;;5012660;28;20029;-64
2023/09/14 00:48:45;;;;;;;40.23;13.17;;;;;;;;;;5012468;28;20034;-63
2023/09/14 00:51:10;;;;;;;38.20;12.10;;;;;;;;;;5009296;28;20026;-64
2023/09/14 00:53:35;;;;;;;37.80;13.07;;;;;;;;;;5000315;28;20056;-63
2023/09/14 00:56:01;;;;;;;36.73;12.80;;;;;;;;;;5012971;28;20026;-64
2023/09/14 00:58:26;;;;;;;34.90;12.90;;;;;;;;;;5012653;28;20053;-65
2023/09/14 01:03:54;;;;;;;32.60;12.40;;;;;;;;;;5009273;28;20064;-63
2023/09/14 01:06:20;;;;;;;40.90;14.00;;;;;;;;;;5005360;28;20030;-63
2023/09/14 01:08:45;;;;;;;34.87;13.13;;;;;;;;;;5005409;28;20049;-64
2023/09/14 01:11:10;;;;;;;38.50;14.07;;;;;;;;;;4999541;28;20394;-64
2023/09/14 01:13:45;;;;;;;36.87;13.10;;;;;;;;;;5006173;28;20061;-63
2023/09/14 01:16:15;;;;;;;35.70;14.07;;;;;;;;;;5012270;28;20031;-63
2023/09/14 01:18:44;;;;;;;36.50;13.00;;;;;;;;;;5011570;28;20029;-64
2023/09/14 01:21:25;;;;;;;21.90;9.23;;;;;;;;;;5001989;28;20030;-63
2023/09/14 01:24:03;;;;;;;25.90;9.63;;;;;;;;;;4995667;28;20033;-62
2023/09/14 01:26:29;;;;;;;27.73;10.67;;;;;;;;;;5004544;28;20466;-64
2023/09/14 01:28:54;;;;;;;43.20;14.73;;;;;;;;;;5002311;28;20064;-64
2023/09/14 01:31:19;;;;;;;38.60;14.50;;;;;;;;;;5001048;28;20037;-64
2023/09/14 01:33:48;;;;;;;36.53;13.30;;;;;;;;;;5007214;28;20031;-64
2023/09/14 01:36:33;;;;;;;38.17;14.03;;;;;;;;;;5003888;28;20063;-64
2023/09/14 01:38:59;;;;;;;40.43;13.93;;;;;;;;;;5012201;28;20382;-64
2023/09/14 01:41:25;;;;;;;35.87;13.83;;;;;;;;;;5011265;28;20482;-64
2023/09/14 01:43:52;;;;;;;37.57;14.40;;;;;;;;;;5007031;28;20030;-63
2023/09/14 01:46:17;;;;;;;35.83;14.67;;;;;;;;;;5005842;28;20486;-64
2023/09/14 01:48:43;;;;;;;41.47;14.80;;;;;;;;;;5011449;28;20061;-64
2023/09/14 01:51:08;;;;;;;43.97;15.93;;;;;;;;;;5000293;28;20032;-64
2023/09/14 01:53:33;;;;;;;31.77;11.47;;;;;;;;;;5011792;28;20675;-63
2023/09/14 01:55:59;;;;;;;48.80;16.10;;;;;;;;;;5008775;28;20030;-63
2023/09/14 01:58:25;;;;;;;45.90;16.27;;;;;;;;;;5004592;28;20056;-64
2023/09/14 02:00:50;;;;;;;36.77;13.67;;;;;;;;;;5004599;28;20022;-64
2023/09/14 02:03:15;;;;;;;39.87;14.93;;;;;;;;;;5004345;28;20030;-64
2023/09/14 02:05:40;;;;;;;44.17;16.47;;;;;;;;;;4998140;28;20051;-65
2023/09/14 02:08:06;;;;;;;42.33;15.93;;;;;;;;;;4994315;28;20101;-63
2023/09/14 02:10:31;;;;;;;40.67;15.83;;;;;;;;;;5005763;28;20029;-64
2023/09/14 02:12:56;;;;;;;44.73;16.03;;;;;;;;;;5010751;28;20045;-63
2023/09/14 02:15:22;;;;;;;38.07;15.13;;;;;;;;;;5003451;28;20025;-63
2023/09/14 02:17:47;;;;;;;50.07;16.27;;;;;;;;;;4993259;28;20033;-63
2023/09/14 02:20:12;;;;;;;40.47;14.93;;;;;;;;;;5003855;28;20026;-63
2023/09/14 02:22:38;;;;;;;38.97;15.90;;;;;;;;;;5011759;28;20022;-63
2023/09/14 02:25:03;;;;;;;44.30;17.10;;;;;;;;;;5011498;28;20022;-63
2023/09/14 02:27:28;;;;;;;42.33;16.43;;;;;;;;;;5006330;28;20113;-63
2023/09/14 02:29:54;;;;;;;43.30;17.23;;;;;;;;;;5007786;28;20087;-63
2023/09/14 02:32:19;;;;;;;42.07;16.37;;;;;;;;;;5001186;28;20118;-64
2023/09/14 02:34:45;;;;;;;41.33;17.03;;;;;;;;;;4994324;28;20081;-63
2023/09/14 02:37:10;;;;;;;49.77;16.60;;;;;;;;;;4994654;28;20025;-63
2023/09/14 02:39:35;;;;;;;41.47;16.63;;;;;;;;;;5011299;28;20454;-64
2023/09/14 02:42:00;;;;;;;39.10;16.57;;;;;;;;;;5011485;28;20363;-64
2023/09/14 02:44:26;;;;;;;48.80;17.33;;;;;;;;;;5011496;28;20470;-62
2023/09/14 02:46:51;;;;;;;43.60;15.73;;;;;;;;;;5011684;28;20421;-63
2023/09/14 02:49:16;;;;;;;37.90;15.97;;;;;;;;;;5010937;28;20017;-62
2023/09/14 02:51:41;;;;;;;46.80;17.40;;;;;;;;;;4998892;28;20045;-65
2023/09/14 02:54:07;;;;;;;44.57;15.87;;;;;;;;;;4992864;28;20033;-62
2023/09/14 02:56:32;;;;;;;43.40;17.47;;;;;;;;;;4995743;28;20023;-62
2023/09/14 02:58:57;;;;;;;40.63;17.50;;;;;;;;;;5001916;28;20018;-61
2023/09/14 03:01:22;;;;;;;50.37;17.90;;;;;;;;;;5010835;28;20045;-62
2023/09/14 03:03:48;;;;;;;46.07;17.67;;;;;;;;;;4995164;28;20061;-62
2023/09/14 03:06:13;;;;;;;47.23;18.13;;;;;;;;;;4997666;28;20030;-64
2023/09/14 03:08:40;;;;;;;46.03;18.03;;;;;;;;;;5007134;28;20030;-64
2023/09/14 03:11:06;;;;;;;48.60;17.80;;;;;;;;;;5005313;28;20032;-64
2023/09/14 03:13:31;;;;;;;47.40;18.20;;;;;;;;;;5007257;28;20417;-62
2023/09/14 03:15:57;;;;;;;52.03;17.83;;;;;;;;;;5009679;28;20038;-62
2023/09/14 03:18:22;;;;;;;50.97;18.87;;;;;;;;;;5008475;28;20026;-63
2023/09/14 03:20:52;;;;;;;54.60;19.30;;;;;;;;;;5007897;28;20494;-65
2023/09/14 03:23:17;;;;;;;48.20;19.17;;;;;;;;;;5014057;28;20473;-62
2023/09/14 03:25:42;;;;;;;43.37;18.40;;;;;;;;;;5010272;28;20026;-63
2023/09/14 03:28:08;;;;;;;41.77;19.27;;;;;;;;;;5000779;28;21368;-64
2023/09/14 03:30:34;;;;;;;64.20;20.47;;;;;;;;;;5003374;28;20072;-63
2023/09/14 03:32:59;;;;;;;45.27;18.80;;;;;;;;;;5007181;28;20081;-64
2023/09/14 03:35:25;;;;;;;33.83;15.80;;;;;;;;;;5009733;28;20030;-63
2023/09/14 03:37:50;;;;;;;45.43;16.60;;;;;;;;;;5007323;28;20430;-62
2023/09/14 03:40:16;;;;;;;36.27;15.10;;;;;;;;;;5001361;28;20073;-62
2023/09/14 03:42:41;;;;;;;41.60;16.67;;;;;;;;;;5012769;28;20033;-62
2023/09/14 03:45:07;;;;;;;44.80;17.33;;;;;;;;;;5010374;28;20028;-62
2023/09/14 03:47:32;;;;;;;42.10;18.67;;;;;;;;;;5001642;28;20100;-62
2023/09/14 03:49:57;;;;;;;58.57;20.07;;;;;;;;;;5011889;28;20046;-62
2023/09/14 03:52:22;;;;;;;48.60;19.20;;;;;;;;;;4998521;28;20068;-62
2023/09/14 03:54:48;;;;;;;51.93;21.07;;;;;;;;;;4996554;28;20014;-63
2023/09/14 03:57:16;;;;;;;48.63;21.40;;;;;;;;;;5011436;28;20022;-63
2023/09/14 03:59:44;;;;;;;54.37;22.33;;;;;;;;;;5012328;28;20033;-63
2023/09/14 04:02:10;;;;;;;54.07;22.37;;;;;;;;;;5005674;28;20061;-62
2023/09/14 04:04:38;;;;;;;51.50;21.30;;;;;;;;;;5012883;28;20533;-62
2023/09/14 04:07:04;;;;;;;51.37;21.33;;;;;;;;;;5003387;28;20014;-63
2023/09/14 04:09:29;;;;;;;52.33;20.53;;;;;;;;;;4995383;28;20073;-62
2023/09/14 04:11:55;;;;;;;50.40;20.53;;;;;;;;;;4996199;28;20014;-62
2023/09/14 04:14:21;;;;;;;46.10;20.00;;;;;;;;;;5012570;28;20021;-63
2023/09/14 04:16:47;;;;;;;48.10;20.70;;;;;;;;;;5013349;28;20378;-62
2023/09/14 04:19:13;;;;;;;50.23;20.60;;;;;;;;;;5013775;28;20022;-63
2023/09/14 04:21:38;;;;;;;46.03;20.40;;;;;;;;;;5013669;28;20038;-63
2023/09/14 04:24:03;;;;;;;51.07;22.20;;;;;;;;;;5013400;28;20509;-63
2023/09/14 04:26:29;;;;;;;63.13;21.90;;;;;;;;;;5006676;28;20029;-62
2023/09/14 04:28:54;;;;;;;58.07;23.53;;;;;;;;;;4994821;28;20057;-70
2023/09/14 04:31:19;;;;;;;53.13;22.23;;;;;;;;;;5004746;28;20036;-68
2023/09/14 04:33:44;;;;;;;56.30;22.63;;;;;;;;;;4998258;28;20026;-68
2023/09/14 04:36:10;;;;;;;51.10;22.90;;;;;;;;;;4999968;28;20050;-68
2023/09/14 04:38:35;;;;;;;47.10;21.47;;;;;;;;;;4998233;28;20025;-67
2023/09/14 04:41:06;;;;;;;53.90;22.17;;;;;;;;;;4994766;28;20121;-68
2023/09/14 04:43:32;;;;;;;53.60;22.48;;;;;;;;;;4999405;28;20026;-68
2023/09/14 04:46:01;;;;;;;52.00;22.33;;;;;;;;;;4996873;28;20030;-69
2023/09/14 04:48:27;;;;;;;55.43;22.60;;;;;;;;;;5000769;28;20081;-69
2023/09/14 04:50:54;;;;;;;58.17;22.83;;;;;;;;;;5001365;28;20022;-69
2023/09/14 04:53:19;;;;;;;52.47;22.97;;;;;;;;;;5012785;28;20100;-68
2023/09/14 04:55:45;;;;;;;52.57;22.90;;;;;;;;;;5011524;28;20125;-68
2023/09/14 04:58:10;;;;;;;47.63;21.87;;;;;;;;;;5001151;28;20033;-68
2023/09/14 05:00:36;;;;;;;54.03;22.43;;;;;;;;;;5011413;28;20022;-68
2023/09/14 05:03:04;;;;;;;50.43;22.80;;;;;;;;;;4998731;28;20026;-68
2023/09/14 05:05:30;;;;;;;52.67;22.37;;;;;;;;;;5009202;28;20042;-68
2023/09/14 05:07:55;;;;;;;54.73;22.23;;;;;;;;;;5006958;28;20149;-69
2023/09/14 05:10:20;;;;;;;57.33;21.90;;;;;;;;;;5002109;28;20021;-68
2023/09/14 05:12:45;;;;;;;47.03;20.53;;;;;;;;;;5012772;28;20021;-68
2023/09/14 05:15:10;;;;;;;49.03;20.73;;;;;;;;;;5007084;28;20425;-68
2023/09/14 05:17:36;;;;;;;51.10;22.17;;;;;;;;;;5003048;28;20478;-68
2023/09/14 05:20:01;;;;;;;59.67;22.47;;;;;;;;;;4998119;28;20022;-68
2023/09/14 05:22:28;;;;;;;49.87;21.77;;;;;;;;;;4994153;28;20019;-68
2023/09/14 05:24:53;;;;;;;47.87;20.63;;;;;;;;;;5006043;28;20025;-68
2023/09/14 05:27:18;;;;;;;43.50;19.83;;;;;;;;;;5011287;28;20018;-68
2023/09/14 05:29:44;;;;;;;43.33;19.33;;;;;;;;;;5012180;28;20022;-68
2023/09/14 05:32:10;;;;;;;42.97;18.40;;;;;;;;;;5012546;28;20025;-68
2023/09/14 05:34:37;;;;;;;43.87;18.33;;;;;;;;;;4998888;28;20021;-67
2023/09/14 05:37:02;;;;;;;44.97;19.07;;;;;;;;;;4994087;28;20014;-68
2023/09/14 05:39:27;;;;;;;46.63;18.67;;;;;;;;;;5003030;28;20394;-68
2023/09/14 05:41:52;;;;;;;44.20;19.37;;;;;;;;;;4998179;28;20375;-68
2023/09/14 05:44:18;;;;;;;49.93;19.30;;;;;;;;;;4993686;28;20026;-68
2023/09/14 05:46:43;;;;;;;47.97;19.43;;;;;;;;;;4993458;28;20022;-68
2023/09/14 05:49:08;;;;;;;36.93;17.83;;;;;;;;;;4993909;28;20026;-68
2023/09/14 05:51:34;;;;;;;37.57;16.70;;;;;;;;;;4995595;28;20386;-68
2023/09/14 05:53:59;;;;;;;44.50;17.53;;;;;;;;;;4996551;28;20049;-68
2023/09/14 05:56:24;;;;;;;39.87;17.07;;;;;;;;;;4993577;28;20035;-68
2023/09/14 05:58:49;;;;;;;36.30;16.53;;;;;;;;;;4998991;28;20018;-68
2023/09/14 06:01:15;;;;;;;33.93;15.77;;;;;;;;;;4992831;28;20026;-68
2023/09/14 06:03:40;;;;;;;40.53;15.53;;;;;;;;;;4997052;28;20076;-68
2023/09/14 06:06:06;;;;;;;34.67;14.93;;;;;;;;;;4993245;28;20034;-68
2023/09/14 06:08:31;;;;;;;33.37;13.73;;;;;;;;;;4993266;28;20046;-68
2023/09/14 06:10:57;;;;;;;33.10;13.50;;;;;;;;;;4999151;28;20021;-68
2023/09/14 06:13:22;;;;;;;36.20;13.40;;;;;;;;;;4993424;28;20026;-68
2023/09/14 06:15:48;;;;;;;29.67;11.80;;;;;;;;;;4995925;28;20026;-68
2023/09/14 06:18:13;;;;;;;25.70;12.03;;;;;;;;;;5011979;28;20025;-68
2023/09/14 06:20:38;;;;;;;26.77;11.17;;;;;;;;;;4993765;28;20148;-68
2023/09/14 06:23:03;;;;;;;22.53;11.40;;;;;;;;;;4993344;28;20046;-69
2023/09/14 06:25:29;;;;;;;22.87;9.23;;;;;;;;;;4992992;28;20035;-68
2023/09/14 06:27:54;;;;;;;25.67;9.47;;;;;;;;;;4993373;28;20015;-69
2023/09/14 06:30:20;;;;;;;17.30;8.77;;;;;;;;;;4993258;28;20029;-69
2023/09/14 06:32:45;;;;;;;20.67;8.77;;;;;;;;;;4999206;28;20093;-69
2023/09/14 06:35:10;;;;;;;17.10;7.20;;;;;;;;;;4993268;28;20040;-69
2023/09/14 06:37:36;;;;;;;13.83;6.97;;;;;;;;;;4993084;28;20038;-69
2023/09/14 06:40:01;;;;;;;16.23;6.73;;;;;;;;;;4995641;28;20049;-68
2023/09/14 06:42:26;;;;;;;14.80;6.10;;;;;;;;;;5011485;28;20018;-69
2023/09/14 06:44:51;;;;;;;13.83;6.33;;;;;;;;;;5011060;28;20022;-69
2023/09/14 06:47:17;;;;;;;9.67;5.10;;;;;;;;;;5011432;28;20382;-68
2023/09/14 06:49:42;;;;;;;10.50;5.10;;;;;;;;;;5011264;28;20084;-68
2023/09/14 06:52:07;;;;;;;14.52;5.13;;;;;;;;;;5013152;28;20129;-69
2023/09/14 06:54:32;;;;;;;11.35;4.82;;;;;;;;;;5015342;28;20026;-68
2023/09/14 06:56:58;;;;;;;11.07;4.43;;;;;;;;;;5015494;28;20045;-68
2023/09/14 06:59:23;;;;;;;9.60;4.10;;;;;;;;;;5013839;28;20420;-64
2023/09/14 07:01:48;;;;;;;11.07;3.88;;;;;;;;;;5002983;28;20458;-65
2023/09/14 07:04:14;;;;;;;13.85;3.80;;;;;;;;;;4996568;28;20038;-63
2023/09/14 07:06:39;;;;;;;15.75;3.78;;;;;;;;;;5009744;28;20120;-64
2023/09/14 07:09:06;;;;;;;10.55;3.85;;;;;;;;;;5015031;28;20022;-63
2023/09/14 07:11:31;;;;;;;9.50;3.85;;;;;;;;;;5014676;28;20028;-64
2023/09/14 07:13:58;;;;;;;8.02;3.50;;;;;;;;;;5008616;28;20848;-64
2023/09/14 07:16:23;;;;;;;9.15;3.40;;;;;;;;;;5006933;28;20401;-63
2023/09/14 07:18:48;;;;;;;8.30;3.47;;;;;;;;;;5014995;28;20032;-62
2023/09/14 07:21:13;;;;;;;9.85;3.30;;;;;;;;;;5015176;28;20053;-64
2023/09/14 07:23:39;;;;;;;14.73;3.58;;;;;;;;;;5014722;28;20037;-64
2023/09/14 07:26:05;;;;;;;6.45;3.50;;;;;;;;;;5014721;28;20026;-63
2023/09/14 07:28:30;;;;;;;9.45;3.20;;;;;;;;;;5014617;28;20018;-63
2023/09/14 07:30:56;;;;;;;11.40;3.45;;;;;;;;;;5014438;28;20080;-63
2023/09/14 07:33:24;;;;;;;10.48;3.58;;;;;;;;;;5014611;28;20093;-62
2023/09/14 07:35:49;;;;;;;9.98;3.60;;;;;;;;;;5014630;28;20489;-62
2023/09/14 07:38:14;;;;;;;8.50;3.17;;;;;;;;;;5014756;28;20057;-61
2023/09/14 07:40:40;;;;;;;8.52;3.38;;;;;;;;;;5006690;28;20041;-61
2023/09/14 07:43:05;;;;;;;14.02;3.30;;;;;;;;;;4996178;28;20410;-62
2023/09/14 07:45:33;;;;;;;9.57;3.22;;;;;;;;;;4996050;28;20390;-61
2023/09/14 07:47:58;;;;;;;7.97;3.03;;;;;;;;;;5007067;28;20046;-63
2023/09/14 07:50:23;;;;;;;10.10;3.10;;;;;;;;;;5006398;28;20517;-64
2023/09/14 07:52:49;;;;;;;9.85;3.38;;;;;;;;;;5001482;28;20378;-64
2023/09/14 07:55:14;;;;;;;7.88;2.65;;;;;;;;;;4999570;28;20383;-64
2023/09/14 07:57:39;;;;;;;9.68;3.47;;;;;;;;;;4995677;28;20394;-64
2023/09/14 08:00:06;;;;;;;6.30;2.60;;;;;;;;;;5001324;28;20076;-63
2023/09/14 08:02:31;;;;;;;9.43;3.38;;;;;;;;;;5013189;28;20033;-61
2023/09/14 08:04:56;;;;;;;11.38;3.20;;;;;;;;;;5013741;28;20046;-61
2023/09/14 08:07:21;;;;;;;6.90;2.63;;;;;;;;;;5000117;28;20386;-61
2023/09/14 08:09:47;;;;;;;8.15;2.50;;;;;;;;;;5001345;28;20417;-61
2023/09/14 08:12:12;;;;;;;9.23;3.10;;;;;;;;;;4998995;28;20017;-61
2023/09/14 08:14:37;;;;;;;8.07;2.90;;;;;;;;;;5004043;28;20105;-61
2023/09/14 08:17:02;;;;;;;9.75;3.05;;;;;;;;;;4999290;28;20030;-61
2023/09/14 08:19:28;;;;;;;9.38;2.78;;;;;;;;;;5007158;28;20477;-60
2023/09/14 08:21:53;;;;;;;8.38;2.60;;;;;;;;;;5003510;28;20018;-60
2023/09/14 08:24:18;;;;;;;7.75;2.75;;;;;;;;;;4995191;28;20025;-60
2023/09/14 08:26:44;;;;;;;9.40;2.85;;;;;;;;;;4995239;28;20057;-60
2023/09/14 08:29:10;;;;;;;9.15;2.72;;;;;;;;;;4999493;28;20029;-60
2023/09/14 08:31:35;;;;;;;9.68;2.33;;;;;;;;;;4996318;28;20053;-59
2023/09/14 08:34:01;;;;;;;11.02;2.40;;;;;;;;;;5011010;28;20018;-60
2023/09/14 08:36:27;;;;;;;9.93;2.40;;;;;;;;;;5010615;28;20034;-59
2023/09/14 08:38:52;;;;;;;11.13;2.38;;;;;;;;;;4995167;28;20108;-59
2023/09/14 08:41:36;;;;;;;8.15;2.55;;;;;;;;;;5001114;28;20498;-58
2023/09/14 08:44:02;;;;;;;6.70;2.10;;;;;;;;;;4998400;28;20022;-59
2023/09/14 08:46:28;;;;;;;10.00;2.40;;;;;;;;;;4994894;28;20125;-58
2023/09/14 08:48:54;;;;;;;7.03;2.00;;;;;;;;;;4994841;28;20029;-59
2023/09/14 08:51:20;;;;;;;8.07;2.00;;;;;;;;;;4994646;28;20018;-58
2023/09/14 08:53:45;;;;;;;12.82;2.13;;;;;;;;;;4994885;28;20481;-58
2023/09/14 08:56:12;;;;;;;11.88;2.35;;;;;;;;;;4994817;28;20033;-59
2023/09/14 08:58:37;;;;;;;9.50;2.20;;;;;;;;;;5005363;28;20025;-58
2023/09/14 09:01:03;;;;;;;5.60;1.42;;;;;;;;;;5012815;28;20033;-58
2023/09/14 09:03:28;;;;;;;6.97;1.85;;;;;;;;;;5012331;28;20347;-59
2023/09/14 09:05:53;;;;;;;7.30;1.40;;;;;;;;;;5012748;28;20025;-58
2023/09/14 09:08:20;;;;;;;6.05;1.50;;;;;;;;;;5012723;28;20021;-58
2023/09/14 09:10:46;;;;;;;4.53;1.30;;;;;;;;;;5012475;28;20041;-58
2023/09/14 09:13:11;;;;;;;4.68;1.10;;;;;;;;;;5012603;28;20026;-59
2023/09/14 09:15:37;;;;;;;5.15;1.50;;;;;;;;;;5011853;28;20025;-58
2023/09/14 09:18:06;;;;;;;4.82;1.20;;;;;;;;;;5012625;28;20535;-59
2023/09/14 09:20:32;;;;;;;8.27;1.27;;;;;;;;;;5012328;28;20851;-58
2023/09/14 09:23:00;;;;;;;3.95;0.93;;;;;;;;;;4996368;28;20093;-57
2023/09/14 09:25:26;;;;;;;5.75;1.00;;;;;;;;;;4993888;28;20022;-58
2023/09/14 09:27:58;;;;;;;7.80;1.10;;;;;;;;;;4993887;28;20064;-58
2023/09/14 09:30:28;;;;;;;8.30;0.85;;;;;;;;;;4994228;28;20022;-58
2023/09/14 09:32:54;;;;;;;6.80;1.00;;;;;;;;;;4993827;28;20088;-57
2023/09/14 09:35:21;;;;;;;5.63;1.13;;;;;;;;;;4994163;28;20042;-58
2023/09/14 09:37:47;;;;;;;5.35;1.13;;;;;;;;;;4993985;28;20467;-57
2023/09/14 09:40:22;;;;;;;3.45;0.80;;;;;;;;;;5006324;28;20022;-58
2023/09/14 09:42:48;;;;;;;3.90;1.00;;;;;;;;;;5003083;28;20027;-59
2023/09/14 09:45:14;;;;;;;5.75;1.00;;;;;;;;;;5004469;28;20033;-59
2023/09/14 09:47:40;;;;;;;4.13;0.75;;;;;;;;;;5012140;28;20072;-58
2023/09/14 09:50:06;;;;;;;5.95;0.90;;;;;;;;;;4995204;28;20069;-59
2023/09/14 09:52:32;;;;;;;3.13;0.60;;;;;;;;;;5004819;28;20099;-58
2023/09/14 09:54:58;;;;;;;3.72;0.57;;;;;;;;;;4994175;28;20142;-60
2023/09/14 09:57:26;;;;;;;3.78;0.80;;;;;;;;;;4993793;28;20018;-59
2023/09/14 09:59:52;;;;;;;5.80;0.70;;;;;;;;;;4998768;28;20014;-60
2023/09/14 10:02:27;;;;;;;4.78;1.13;;;;;;;;;;5010712;28;20109;-62
2023/09/14 10:04:52;;;;;;;3.80;0.70;;;;;;;;;;5011620;28;20046;-60
2023/09/14 10:07:21;;;;;;;4.45;0.80;;;;;;;;;;5011618;28;20024;-61
2023/09/14 10:09:46;;;;;;;4.20;0.90;;;;;;;;;;5011543;28;20098;-60
2023/09/14 10:12:11;;;;;;;4.95;0.77;;;;;;;;;;5000394;28;20094;-61
2023/09/14 10:14:38;;;;;;;3.22;0.80;;;;;;;;;;4993490;28;20113;-61
2023/09/14 10:17:06;;;;;;;3.25;0.80;;;;;;;;;;4993429;28;20145;-61
2023/09/14 10:19:32;;;;;;;5.00;0.85;;;;;;;;;;4993289;28;20018;-61
2023/09/14 10:21:57;;;;;;;2.10;0.65;;;;;;;;;;4993371;28;20027;-60
2023/09/14 10:24:24;;;;;;;2.75;0.60;;;;;;;;;;4993521;28;20020;-59
2023/09/14 10:26:49;;;;;;;4.47;1.00;;;;;;;;;;4992704;28;20061;-61
2023/09/14 10:29:15;;;;;;;2.78;0.90;;;;;;;;;;4993321;28;20092;-61
2023/09/14 10:31:42;;;;;;;10.35;1.50;;;;;;;;;;4993073;28;20881;-65
2023/09/14 10:34:08;;;;;;;3.28;0.80;;;;;;;;;;4993016;28;20121;-65
2023/09/14 10:36:34;;;;;;;6.82;1.02;;;;;;;;;;4997299;28;20072;-65
2023/09/14 10:39:01;;;;;;;4.38;0.98;;;;;;;;;;5009761;28;20498;-65
2023/09/14 10:41:26;;;;;;;4.50;1.00;;;;;;;;;;5011121;28;20021;-65
2023/09/14 10:43:52;;;;;;;5.88;1.30;;;;;;;;;;4998951;28;20014;-66
2023/09/14 10:46:21;;;;;;;6.63;1.00;;;;;;;;;;4992814;28;20061;-65
2023/09/14 10:48:47;;;;;;;5.20;1.00;;;;;;;;;;4992810;28;20053;-65
2023/09/14 10:51:13;;;;;;;3.65;0.80;;;;;;;;;;4993140;28;20042;-65
2023/09/14 10:53:40;;;;;;;4.70;1.08;;;;;;;;;;4992896;28;20820;-65
2023/09/14 10:56:05;;;;;;;4.05;1.15;;;;;;;;;;4993155;28;20536;-66
2023/09/14 10:58:41;;;;;;;3.90;0.85;;;;;;;;;;4992841;28;20026;-65
2023/09/14 11:01:09;;;;;;;4.25;1.05;;;;;;;;;;4993110;28;20031;-66
2023/09/14 11:03:53;;;;;;;4.18;0.90;;;;;;;;;;4992376;28;20383;-66
2023/09/14 11:06:38;;;;;;;4.60;0.85;;;;;;;;;;4993483;28;20030;-65
2023/09/14 11:09:05;;;;;;;6.13;1.08;;;;;;;;;;5002135;28;20010;-66
2023/09/14 11:11:37;;;;;;;3.42;0.90;;;;;;;;;;4993604;28;20021;-66
2023/09/14 11:14:06;;;;;;;4.80;1.00;;;;;;;;;;4996675;28;20049;-67
2023/09/14 11:16:40;;;;;;;5.32;1.00;;;;;;;;;;4992833;28;20030;-67
2023/09/14 11:19:05;;;;;;;4.45;1.25;;;;;;;;;;4992985;28;20467;-67
2023/09/14 11:21:31;;;;;;;5.57;1.02;;;;;;;;;;4992691;28;20018;-67
2023/09/14 11:23:57;;;;;;;5.50;0.95;;;;;;;;;;4992994;28;20076;-68
2023/09/14 11:26:29;;;;;;;3.13;0.90;;;;;;;;;;4992363;28;20033;-68
2023/09/14 11:28:54;;;;;;;3.92;1.10;;;;;;;;;;4992577;28;20371;-68
2023/09/14 11:31:27;;;;;;;4.47;1.00;;;;;;;;;;4992438;28;20021;-68
2023/09/14 11:33:53;;;;;;;3.92;0.98;;;;;;;;;;4992411;28;20026;-67
2023/09/14 11:36:19;;;;;;;5.70;1.20;;;;;;;;;;4996685;28;20026;-69
2023/09/14 11:38:44;;;;;;;4.85;1.00;;;;;;;;;;4998431;28;20486;-68
2023/09/14 11:41:29;;;;;;;3.80;1.00;;;;;;;;;;5007433;28;20040;-67
2023/09/14 11:44:04;;;;;;;5.45;0.90;;;;;;;;;;5014021;28;20025;-65
2023/09/14 11:46:30;;;;;;;4.07;0.90;;;;;;;;;;4997037;28;20026;-67
2023/09/14 11:48:55;;;;;;;4.10;0.90;;;;;;;;;;4997020;28;20501;-67
2023/09/14 11:51:24;;;;;;;4.13;1.00;;;;;;;;;;4995921;28;20084;-67
2023/09/14 11:53:49;;;;;;;7.22;0.93;;;;;;;;;;4999941;28;20470;-67
2023/09/14 11:56:18;;;;;;;4.03;0.95;;;;;;;;;;4995994;28;20060;-68
2023/09/14 11:58:43;;;;;;;5.88;1.10;;;;;;;;;;4996973;28;20486;-66
2023/09/14 12:01:09;;;;;;;4.85;0.90;;;;;;;;;;4995673;28;20065;-66
2023/09/14 12:03:36;;;;;;;6.22;1.35;;;;;;;;;;4995222;28;20023;-67
2023/09/14 12:06:02;;;;;;;5.53;1.55;;;;;;;;;;5012081;28;20105;-67
2023/09/14 12:08:28;;;;;;;5.28;0.95;;;;;;;;;;5013948;28;20105;-68
2023/09/14 12:10:54;;;;;;;6.22;1.13;;;;;;;;;;5014042;28;20026;-67
2023/09/14 12:13:20;;;;;;;6.95;1.40;;;;;;;;;;5013626;28;20026;-66
2023/09/14 12:15:46;;;;;;;5.07;1.02;;;;;;;;;;5005181;28;20053;-67
2023/09/14 12:18:12;;;;;;;4.10;1.23;;;;;;;;;;4995263;28;20023;-66
2023/09/14 12:20:42;;;;;;;5.18;1.17;;;;;;;;;;4995372;28;20156;-66
2023/09/14 12:23:09;;;;;;;4.43;0.98;;;;;;;;;;4995550;28;20019;-67
2023/09/14 12:25:34;;;;;;;5.65;1.65;;;;;;;;;;4995355;28;20031;-67
2023/09/14 12:28:00;;;;;;;3.47;1.00;;;;;;;;;;4995158;28;20015;-67
2023/09/14 12:30:27;;;;;;;2.85;0.70;;;;;;;;;;4995374;28;20116;-70
2023/09/14 12:32:52;;;;;;;4.40;1.10;;;;;;;;;;4995380;28;20018;-69
2023/09/14 12:35:17;;;;;;;8.93;1.00;;;;;;;;;;4995160;28;20022;-69
2023/09/14 12:37:43;;;;;;;6.78;1.13;;;;;;;;;;5003875;28;20037;-67
2023/09/14 12:40:12;;;;;;;5.75;1.10;;;;;;;;;;5009461;28;20025;-62
2023/09/14 12:42:40;;;;;;;4.25;0.98;;;;;;;;;;4994834;28;20033;-63
2023/09/14 12:45:16;;;;;;;4.22;1.02;;;;;;;;;;4994909;28;20050;-66
2023/09/14 12:47:44;;;;;;;4.78;0.95;;;;;;;;;;5012499;28;20096;-65
2023/09/14 12:50:15;;;;;;;4.72;0.88;;;;;;;;;;5002973;28;20022;-65
2023/09/14 12:52:41;;;;;;;4.65;1.02;;;;;;;;;;5004427;28;20104;-69
2023/09/14 12:55:11;;;;;;;6.38;1.20;;;;;;;;;;5012001;28;20013;-68
2023/09/14 12:57:36;;;;;;;5.95;1.35;;;;;;;;;;4994288;28;20021;-70
2023/09/14 13:00:27;;;;;;;4.25;0.90;;;;;;;;;;5001320;28;20022;-72
2023/09/14 13:02:51;;;;;;;7.28;1.45;;;;;;;;;;4994289;28;20030;-64
2023/09/14 13:05:20;;;;;;;6.53;1.08;;;;;;;;;;4993817;28;20046;-63
2023/09/14 13:07:50;;;;;;;4.15;0.90;;;;;;;;;;5012804;28;20049;-64
2023/09/14 13:10:25;;;;;;;4.75;1.08;;;;;;;;;;5001717;28;20042;-63
2023/09/14 13:12:56;;;;;;;5.57;1.10;;;;;;;;;;4994553;28;20040;-63
2023/09/14 13:15:25;;;;;;;4.45;1.00;;;;;;;;;;5002117;28;20379;-62
2023/09/14 13:17:52;;;;;;;4.97;1.00;;;;;;;;;;4994482;28;20026;-63
2023/09/14 13:20:17;;;;;;;4.65;1.00;;;;;;;;;;4994024;28;20019;-64
2023/09/14 13:22:42;;;;;;;4.57;1.00;;;;;;;;;;4994069;28;20044;-64
2023/09/14 13:25:07;;;;;;;4.20;0.98;;;;;;;;;;4993942;28;20064;-63
2023/09/14 13:27:34;;;;;;;4.10;0.95;;;;;;;;;;4994190;28;20493;-65
2023/09/14 13:30:05;;;;;;;7.80;1.10;;;;;;;;;;4998845;28;20445;-64
2023/09/14 13:32:30;;;;;;;6.05;1.13;;;;;;;;;;5008478;28;20378;-64
2023/09/14 13:34:56;;;;;;;5.30;1.25;;;;;;;;;;5010891;28;20026;-64
2023/09/14 13:37:21;;;;;;;6.25;0.88;;;;;;;;;;4996823;28;20184;-65
2023/09/14 13:39:46;;;;;;;6.72;1.00;;;;;;;;;;4995789;28;20034;-65
2023/09/14 13:42:11;;;;;;;4.43;1.00;;;;;;;;;;5011990;28;20025;-64
2023/09/14 13:44:37;;;;;;;3.53;0.98;;;;;;;;;;5012284;28;20014;-64
2023/09/14 13:47:02;;;;;;;3.40;0.98;;;;;;;;;;5010518;28;20020;-64
2023/09/14 13:49:29;;;;;;;5.07;0.93;;;;;;;;;;4996958;28;20022;-64
2023/09/14 13:51:54;;;;;;;6.82;1.13;;;;;;;;;;4994211;28;20455;-66
2023/09/14 13:54:19;;;;;;;4.90;1.30;;;;;;;;;;5012411;28;20064;-64
2023/09/14 13:56:45;;;;;;;6.00;0.98;;;;;;;;;;5011717;28;20089;-64
2023/09/14 13:59:10;;;;;;;4.03;0.95;;;;;;;;;;4995705;28;20526;-63
2023/09/14 14:01:35;;;;;;;5.60;1.10;;;;;;;;;;4992861;28;20024;-64
2023/09/14 14:04:02;;;;;;;3.80;1.02;;;;;;;;;;4993267;28;20077;-71
2023/09/14 14:06:27;;;;;;;7.25;1.10;;;;;;;;;;4996091;28;20027;-69
2023/09/14 14:08:52;;;;;;;5.43;1.10;;;;;;;;;;4993575;28;20014;-74
2023/09/14 14:11:19;;;;;;;5.40;1.00;;;;;;;;;;4993450;28;20105;-72
2023/09/14 14:13:45;;;;;;;5.40;1.23;;;;;;;;;;4995754;28;20097;-71
2023/09/14 14:16:10;;;;;;;5.32;1.02;;;;;;;;;;4993274;28;20032;-71
2023/09/14 14:18:36;;;;;;;6.22;1.00;;;;;;;;;;4994651;28;20022;-72
2023/09/14 14:21:01;;;;;;;5.45;1.15;;;;;;;;;;4995162;28;20022;-72
2023/09/14 14:23:27;;;;;;;5.53;1.30;;;;;;;;;;4993089;28;20100;-71
2023/09/14 14:25:52;;;;;;;4.53;0.98;;;;;;;;;;4993326;28;20022;-76
2023/09/14 14:28:17;;;;;;;4.57;1.00;;;;;;;;;;4993035;28;20019;-73